sensor_id;sensor_type;location;lat;lon;timestamp;temperature;humidity
21216;DHT22;10765;50.954;5.322;2023-12-04T00:00:45;1.70;1.00
21216;DHT22;10765;50.954;5.322;2023-12-04T00:03:12;1.70;1.00
21216;DHT22;10765;50.954;5.322;2023-12-04T00:05:42;1.60;1.00
21216;DHT22;10765;50.954;5.322;2023-12-04T00:08:10;1.70;1.00
21216;DHT22;10765;50.954;5.322;2023-12-04T00:10:37;1.70;1.00
21216;DHT22;10765;50.954;5.322;2023-12-04T00:13:04;1.70;1.00
21216;DHT22;10765;50.954;5.322;2023-12-04T00:15:31;1.70;1.00
21216;DHT22;10765;50.954;5.322;2023-12-04T00:17:57;1.70;1.00
21216;DHT22;10765;50.954;5.322;2023-12-04T00:20:24;1.70;1.00
21216;DHT22;10765;50.954;5.322;2023-12-04T00:22:51;1.60;1.00
21216;DHT22;10765;50.954;5.322;2023-12-04T00:25:19;1.60;1.00
21216;DHT22;10765;50.954;5.322;2023-12-04T00:27:46;1.70;1.00
21216;DHT22;10765;50.954;5.322;2023-12-04T00:30:13;1.70;99.90
21216;DHT22;10765;50.954;5.322;2023-12-04T00:32:40;1.70;99.90
21216;DHT22;10765;50.954;5.322;2023-12-04T00:35:07;1.70;99.90
21216;DHT22;10765;50.954;5.322;2023-12-04T00:37:34;1.70;99.90
21216;DHT22;10765;50.954;5.322;2023-12-04T00:40:05;1.60;99.90
21216;DHT22;10765;50.954;5.322;2023-12-04T00:42:33;1.60;99.90
21216;DHT22;10765;50.954;5.322;2023-12-04T00:45:01;1.80;99.90
21216;DHT22;10765;50.954;5.322;2023-12-04T00:47:28;1.60;99.90
21216;DHT22;10765;50.954;5.322;2023-12-04T00:49:55;1.50;99.90
21216;DHT22;10765;50.954;5.322;2023-12-04T00:52:22;1.60;99.90
21216;DHT22;10765;50.954;5.322;2023-12-04T00:54:48;1.60;99.90
21216;DHT22;10765;50.954;5.322;2023-12-04T00:57:16;1.60;99.90
21216;DHT22;10765;50.954;5.322;2023-12-04T00:59:44;1.50;99.90
21216;DHT22;10765;50.954;5.322;2023-12-04T01:02:11;1.50;99.90
21216;DHT22;10765;50.954;5.322;2023-12-04T01:04:40;1.40;99.90
21216;DHT22;10765;50.954;5.322;2023-12-04T01:07:07;1.40;99.90
21216;DHT22;10765;50.954;5.322;2023-12-04T01:09:35;1.50;99.90
21216;DHT22;10765;50.954;5.322;2023-12-04T01:12:02;1.40;99.90
21216;DHT22;10765;50.954;5.322;2023-12-04T01:14:29;1.30;99.90
21216;DHT22;10765;50.954;5.322;2023-12-04T01:16:58;1.40;99.90
21216;DHT22;10765;50.954;5.322;2023-12-04T01:19:25;1.30;99.90
21216;DHT22;10765;50.954;5.322;2023-12-04T01:21:51;1.50;99.90
21216;DHT22;10765;50.954;5.322;2023-12-04T01:24:19;1.50;99.90
21216;DHT22;10765;50.954;5.322;2023-12-04T01:26:46;1.50;99.90
21216;DHT22;10765;50.954;5.322;2023-12-04T01:29:12;1.60;99.50
21216;DHT22;10765;50.954;5.322;2023-12-04T01:31:39;1.60;99.90
21216;DHT22;10765;50.954;5.322;2023-12-04T01:34:08;1.60;99.90
21216;DHT22;10765;50.954;5.322;2023-12-04T01:36:35;1.60;99.90
21216;DHT22;10765;50.954;5.322;2023-12-04T01:39:02;1.70;66.20
21216;DHT22;10765;50.954;5.322;2023-12-04T01:41:29;1.70;89.10
21216;DHT22;10765;50.954;5.322;2023-12-04T01:43:56;1.70;61.70
21216;DHT22;10765;50.954;5.322;2023-12-04T01:46:23;2.00;27.20
21216;DHT22;10765;50.954;5.322;2023-12-04T01:48:50;1.90;33.70
21216;DHT22;10765;50.954;5.322;2023-12-04T01:51:19;2.00;45.30
21216;DHT22;10765;50.954;5.322;2023-12-04T01:53:47;2.00;39.90
21216;DHT22;10765;50.954;5.322;2023-12-04T01:56:15;2.00;63.80
21216;DHT22;10765;50.954;5.322;2023-12-04T01:58:42;2.00;90.30
21216;DHT22;10765;50.954;5.322;2023-12-04T02:01:11;2.10;92.00
21216;DHT22;10765;50.954;5.322;2023-12-04T02:03:37;2.10;91.50
21216;DHT22;10765;50.954;5.322;2023-12-04T02:06:05;2.10;99.90
21216;DHT22;10765;50.954;5.322;2023-12-04T02:08:34;2.10;99.90
21216;DHT22;10765;50.954;5.322;2023-12-04T02:11:02;2.10;99.90
21216;DHT22;10765;50.954;5.322;2023-12-04T02:13:29;2.20;99.90
21216;DHT22;10765;50.954;5.322;2023-12-04T02:15:57;2.10;87.00
21216;DHT22;10765;50.954;5.322;2023-12-04T02:18:25;2.10;57.00
21216;DHT22;10765;50.954;5.322;2023-12-04T02:20:53;2.10;39.20
21216;DHT22;10765;50.954;5.322;2023-12-04T02:23:20;2.10;32.50
21216;DHT22;10765;50.954;5.322;2023-12-04T02:25:49;2.10;45.50
21216;DHT22;10765;50.954;5.322;2023-12-04T02:28:17;2.10;44.10
21216;DHT22;10765;50.954;5.322;2023-12-04T02:30:45;2.20;51.60
21216;DHT22;10765;50.954;5.322;2023-12-04T02:33:14;2.20;49.80
21216;DHT22;10765;50.954;5.322;2023-12-04T02:35:42;2.30;26.00
21216;DHT22;10765;50.954;5.322;2023-12-04T02:38:10;2.30;42.80
21216;DHT22;10765;50.954;5.322;2023-12-04T02:40:38;2.30;33.70
21216;DHT22;10765;50.954;5.322;2023-12-04T02:43:07;2.30;25.70
21216;DHT22;10765;50.954;5.322;2023-12-04T02:45:34;2.40;20.60
21216;DHT22;10765;50.954;5.322;2023-12-04T02:48:00;2.30;19.90
21216;DHT22;10765;50.954;5.322;2023-12-04T02:50:27;2.30;41.30
21216;DHT22;10765;50.954;5.322;2023-12-04T02:52:54;2.30;42.00
21216;DHT22;10765;50.954;5.322;2023-12-04T02:55:21;2.30;29.50
21216;DHT22;10765;50.954;5.322;2023-12-04T02:57:48;2.30;64.10
21216;DHT22;10765;50.954;5.322;2023-12-04T03:00:17;2.40;42.10
21216;DHT22;10765;50.954;5.322;2023-12-04T03:02:44;2.40;40.50
21216;DHT22;10765;50.954;5.322;2023-12-04T03:05:11;2.40;40.40
21216;DHT22;10765;50.954;5.322;2023-12-04T03:07:38;2.40;28.00
21216;DHT22;10765;50.954;5.322;2023-12-04T03:10:06;2.40;12.60
21216;DHT22;10765;50.954;5.322;2023-12-04T03:12:33;2.50;1.00
21216;DHT22;10765;50.954;5.322;2023-12-04T03:14:59;2.40;10.00
21216;DHT22;10765;50.954;5.322;2023-12-04T03:17:28;2.40;6.90
21216;DHT22;10765;50.954;5.322;2023-12-04T03:19:54;2.40;1.00
21216;DHT22;10765;50.954;5.322;2023-12-04T03:22:21;2.40;1.00
21216;DHT22;10765;50.954;5.322;2023-12-04T03:24:48;2.40;1.00
21216;DHT22;10765;50.954;5.322;2023-12-04T03:27:15;2.40;1.00
21216;DHT22;10765;50.954;5.322;2023-12-04T03:29:42;2.50;1.00
21216;DHT22;10765;50.954;5.322;2023-12-04T03:32:09;2.50;1.00
21216;DHT22;10765;50.954;5.322;2023-12-04T03:34:37;2.50;1.00
21216;DHT22;10765;50.954;5.322;2023-12-04T03:37:04;2.50;1.00
21216;DHT22;10765;50.954;5.322;2023-12-04T03:39:31;2.60;1.00
21216;DHT22;10765;50.954;5.322;2023-12-04T03:41:57;2.60;1.00
21216;DHT22;10765;50.954;5.322;2023-12-04T03:44:25;2.60;1.00
21216;DHT22;10765;50.954;5.322;2023-12-04T03:46:52;2.60;1.00
21216;DHT22;10765;50.954;5.322;2023-12-04T03:49:18;2.60;1.00
21216;DHT22;10765;50.954;5.322;2023-12-04T03:51:47;2.50;1.00
21216;DHT22;10765;50.954;5.322;2023-12-04T03:54:14;2.50;1.00
21216;DHT22;10765;50.954;5.322;2023-12-04T03:56:40;2.50;1.00
21216;DHT22;10765;50.954;5.322;2023-12-04T03:59:09;2.60;1.00
21216;DHT22;10765;50.954;5.322;2023-12-04T04:01:36;2.50;1.00
21216;DHT22;10765;50.954;5.322;2023-12-04T04:04:03;2.60;1.00
21216;DHT22;10765;50.954;5.322;2023-12-04T04:06:30;2.60;1.00
21216;DHT22;10765;50.954;5.322;2023-12-04T04:08:58;2.60;1.00
21216;DHT22;10765;50.954;5.322;2023-12-04T04:11:26;2.50;1.00
21216;DHT22;10765;50.954;5.322;2023-12-04T04:13:52;2.50;1.00
21216;DHT22;10765;50.954;5.322;2023-12-04T04:16:19;2.50;1.00
21216;DHT22;10765;50.954;5.322;2023-12-04T04:18:46;2.50;1.00
21216;DHT22;10765;50.954;5.322;2023-12-04T04:21:13;2.50;1.00
21216;DHT22;10765;50.954;5.322;2023-12-04T04:23:40;2.60;1.00
21216;DHT22;10765;50.954;5.322;2023-12-04T04:26:08;2.50;1.00
21216;DHT22;10765;50.954;5.322;2023-12-04T04:28:35;2.40;1.00
21216;DHT22;10765;50.954;5.322;2023-12-04T04:31:02;2.40;1.00
21216;DHT22;10765;50.954;5.322;2023-12-04T04:33:29;2.40;1.00
21216;DHT22;10765;50.954;5.322;2023-12-04T04:35:56;2.40;1.00
21216;DHT22;10765;50.954;5.322;2023-12-04T04:38:23;2.40;1.00
21216;DHT22;10765;50.954;5.322;2023-12-04T04:40:50;2.40;1.00
21216;DHT22;10765;50.954;5.322;2023-12-04T04:43:19;2.40;5.20
21216;DHT22;10765;50.954;5.322;2023-12-04T04:45:46;2.40;8.60
21216;DHT22;10765;50.954;5.322;2023-12-04T04:48:13;2.30;9.80
21216;DHT22;10765;50.954;5.322;2023-12-04T04:50:40;2.30;6.90
21216;DHT22;10765;50.954;5.322;2023-12-04T04:53:07;2.40;1.00
21216;DHT22;10765;50.954;5.322;2023-12-04T04:55:34;2.30;4.20
21216;DHT22;10765;50.954;5.322;2023-12-04T04:58:00;2.40;1.00
21216;DHT22;10765;50.954;5.322;2023-12-04T05:00:30;2.40;1.00
21216;DHT22;10765;50.954;5.322;2023-12-04T05:02:57;2.40;1.00
21216;DHT22;10765;50.954;5.322;2023-12-04T05:05:24;2.40;1.00
21216;DHT22;10765;50.954;5.322;2023-12-04T05:07:51;2.50;1.00
21216;DHT22;10765;50.954;5.322;2023-12-04T05:10:18;2.50;1.00
21216;DHT22;10765;50.954;5.322;2023-12-04T05:12:45;2.50;1.00
21216;DHT22;10765;50.954;5.322;2023-12-04T05:15:11;2.60;1.00
21216;DHT22;10765;50.954;5.322;2023-12-04T05:17:40;2.60;1.00
21216;DHT22;10765;50.954;5.322;2023-12-04T05:20:08;2.60;1.00
21216;DHT22;10765;50.954;5.322;2023-12-04T05:22:35;2.70;1.00
21216;DHT22;10765;50.954;5.322;2023-12-04T05:25:02;2.70;1.00
21216;DHT22;10765;50.954;5.322;2023-12-04T05:27:29;2.70;1.00
21216;DHT22;10765;50.954;5.322;2023-12-04T05:29:56;2.80;1.00
21216;DHT22;10765;50.954;5.322;2023-12-04T05:32:23;2.80;1.00
21216;DHT22;10765;50.954;5.322;2023-12-04T05:34:51;2.80;1.00
21216;DHT22;10765;50.954;5.322;2023-12-04T05:37:18;2.80;1.00
21216;DHT22;10765;50.954;5.322;2023-12-04T05:39:45;2.80;1.00
21216;DHT22;10765;50.954;5.322;2023-12-04T05:42:12;2.90;1.00
21216;DHT22;10765;50.954;5.322;2023-12-04T05:44:39;2.80;1.00
21216;DHT22;10765;50.954;5.322;2023-12-04T05:47:06;2.80;1.00
21216;DHT22;10765;50.954;5.322;2023-12-04T05:49:33;2.80;1.00
21216;DHT22;10765;50.954;5.322;2023-12-04T05:52:02;2.90;1.00
21216;DHT22;10765;50.954;5.322;2023-12-04T05:54:29;2.80;1.00
21216;DHT22;10765;50.954;5.322;2023-12-04T05:56:56;2.80;1.00
21216;DHT22;10765;50.954;5.322;2023-12-04T05:59:22;2.80;1.00
21216;DHT22;10765;50.954;5.322;2023-12-04T06:01:49;2.80;1.00
21216;DHT22;10765;50.954;5.322;2023-12-04T06:04:16;2.80;1.00
21216;DHT22;10765;50.954;5.322;2023-12-04T06:06:43;2.80;1.00
21216;DHT22;10765;50.954;5.322;2023-12-04T06:09:11;2.80;1.00
21216;DHT22;10765;50.954;5.322;2023-12-04T06:11:40;2.90;1.00
21216;DHT22;10765;50.954;5.322;2023-12-04T06:14:07;2.80;1.00
21216;DHT22;10765;50.954;5.322;2023-12-04T06:16:34;2.90;1.00
21216;DHT22;10765;50.954;5.322;2023-12-04T06:19:01;2.80;1.00
21216;DHT22;10765;50.954;5.322;2023-12-04T06:21:28;2.90;1.00
21216;DHT22;10765;50.954;5.322;2023-12-04T06:23:55;3.00;1.00
21216;DHT22;10765;50.954;5.322;2023-12-04T06:26:24;3.00;1.00
21216;DHT22;10765;50.954;5.322;2023-12-04T06:28:52;3.00;1.00
21216;DHT22;10765;50.954;5.322;2023-12-04T06:31:19;3.20;1.00
21216;DHT22;10765;50.954;5.322;2023-12-04T06:33:47;3.20;1.00
21216;DHT22;10765;50.954;5.322;2023-12-04T06:36:15;3.30;1.00
21216;DHT22;10765;50.954;5.322;2023-12-04T06:38:46;3.30;1.00
21216;DHT22;10765;50.954;5.322;2023-12-04T06:41:14;3.40;1.00
21216;DHT22;10765;50.954;5.322;2023-12-04T06:43:43;3.40;1.00
21216;DHT22;10765;50.954;5.322;2023-12-04T06:46:11;3.40;1.00
21216;DHT22;10765;50.954;5.322;2023-12-04T06:48:41;3.30;1.00
21216;DHT22;10765;50.954;5.322;2023-12-04T06:51:09;3.30;1.00
21216;DHT22;10765;50.954;5.322;2023-12-04T06:53:39;3.20;1.00
21216;DHT22;10765;50.954;5.322;2023-12-04T06:56:07;3.20;1.00
21216;DHT22;10765;50.954;5.322;2023-12-04T06:58:34;3.30;1.00
21216;DHT22;10765;50.954;5.322;2023-12-04T07:01:03;3.30;1.00
21216;DHT22;10765;50.954;5.322;2023-12-04T07:03:30;3.30;1.00
21216;DHT22;10765;50.954;5.322;2023-12-04T07:05:57;3.30;1.00
21216;DHT22;10765;50.954;5.322;2023-12-04T07:08:24;3.40;1.00
21216;DHT22;10765;50.954;5.322;2023-12-04T07:10:51;3.50;1.00
21216;DHT22;10765;50.954;5.322;2023-12-04T07:13:18;3.50;1.00
21216;DHT22;10765;50.954;5.322;2023-12-04T07:15:46;3.60;1.00
21216;DHT22;10765;50.954;5.322;2023-12-04T07:18:14;3.60;1.00
21216;DHT22;10765;50.954;5.322;2023-12-04T07:20:41;3.50;1.00
21216;DHT22;10765;50.954;5.322;2023-12-04T07:23:08;3.60;1.00
21216;DHT22;10765;50.954;5.322;2023-12-04T07:25:35;3.70;1.00
21216;DHT22;10765;50.954;5.322;2023-12-04T07:28:02;3.70;1.00
21216;DHT22;10765;50.954;5.322;2023-12-04T07:30:28;3.60;1.00
21216;DHT22;10765;50.954;5.322;2023-12-04T07:32:55;3.70;1.00
21216;DHT22;10765;50.954;5.322;2023-12-04T07:35:24;3.70;1.00
21216;DHT22;10765;50.954;5.322;2023-12-04T07:37:51;3.70;1.00
21216;DHT22;10765;50.954;5.322;2023-12-04T07:40:18;3.70;1.00
21216;DHT22;10765;50.954;5.322;2023-12-04T07:42:46;3.70;1.00
21216;DHT22;10765;50.954;5.322;2023-12-04T07:45:13;3.70;1.00
21216;DHT22;10765;50.954;5.322;2023-12-04T07:47:41;3.70;1.00
21216;DHT22;10765;50.954;5.322;2023-12-04T07:50:08;3.70;1.00
21216;DHT22;10765;50.954;5.322;2023-12-04T07:52:37;3.80;1.00
21216;DHT22;10765;50.954;5.322;2023-12-04T07:55:04;3.80;1.00
21216;DHT22;10765;50.954;5.322;2023-12-04T07:57:31;3.80;1.00
21216;DHT22;10765;50.954;5.322;2023-12-04T07:59:58;3.90;1.00
21216;DHT22;10765;50.954;5.322;2023-12-04T08:02:25;3.80;1.00
21216;DHT22;10765;50.954;5.322;2023-12-04T08:04:52;3.80;1.00
21216;DHT22;10765;50.954;5.322;2023-12-04T08:07:19;3.90;1.00
21216;DHT22;10765;50.954;5.322;2023-12-04T08:09:47;3.90;1.00
21216;DHT22;10765;50.954;5.322;2023-12-04T08:12:14;3.90;1.00
21216;DHT22;10765;50.954;5.322;2023-12-04T08:14:41;3.90;1.00
21216;DHT22;10765;50.954;5.322;2023-12-04T08:17:08;3.90;1.00
21216;DHT22;10765;50.954;5.322;2023-12-04T08:19:35;3.90;1.00
21216;DHT22;10765;50.954;5.322;2023-12-04T08:22:03;3.90;1.00
21216;DHT22;10765;50.954;5.322;2023-12-04T08:24:30;3.90;1.00
21216;DHT22;10765;50.954;5.322;2023-12-04T08:26:58;3.90;1.00
21216;DHT22;10765;50.954;5.322;2023-12-04T08:29:25;3.90;1.00
21216;DHT22;10765;50.954;5.322;2023-12-04T08:31:52;3.90;1.00
21216;DHT22;10765;50.954;5.322;2023-12-04T08:34:19;3.90;1.00
21216;DHT22;10765;50.954;5.322;2023-12-04T08:36:46;3.90;1.00
21216;DHT22;10765;50.954;5.322;2023-12-04T08:39:13;4.00;1.00
21216;DHT22;10765;50.954;5.322;2023-12-04T08:41:39;4.00;1.00
21216;DHT22;10765;50.954;5.322;2023-12-04T08:44:08;4.00;1.00
21216;DHT22;10765;50.954;5.322;2023-12-04T08:46:35;4.00;1.00
21216;DHT22;10765;50.954;5.322;2023-12-04T08:49:01;4.00;1.00
21216;DHT22;10765;50.954;5.322;2023-12-04T08:51:30;4.00;1.00
21216;DHT22;10765;50.954;5.322;2023-12-04T08:53:57;4.10;1.00
21216;DHT22;10765;50.954;5.322;2023-12-04T08:56:24;4.10;1.00
21216;DHT22;10765;50.954;5.322;2023-12-04T08:58:50;4.10;1.00
21216;DHT22;10765;50.954;5.322;2023-12-04T09:01:19;4.20;1.00
21216;DHT22;10765;50.954;5.322;2023-12-04T09:03:46;4.20;1.00
21216;DHT22;10765;50.954;5.322;2023-12-04T09:06:12;4.20;1.00
21216;DHT22;10765;50.954;5.322;2023-12-04T09:08:40;4.20;1.00
21216;DHT22;10765;50.954;5.322;2023-12-04T09:11:07;4.20;1.00
21216;DHT22;10765;50.954;5.322;2023-12-04T09:13:34;4.30;1.00
21216;DHT22;10765;50.954;5.322;2023-12-04T09:16:02;4.30;1.00
21216;DHT22;10765;50.954;5.322;2023-12-04T09:18:30;4.30;1.00
21216;DHT22;10765;50.954;5.322;2023-12-04T09:20:57;4.40;1.00
21216;DHT22;10765;50.954;5.322;2023-12-04T09:23:24;4.40;1.00
21216;DHT22;10765;50.954;5.322;2023-12-04T09:25:51;4.40;1.00
21216;DHT22;10765;50.954;5.322;2023-12-04T09:28:18;4.40;1.00
21216;DHT22;10765;50.954;5.322;2023-12-04T09:30:45;4.40;1.00
21216;DHT22;10765;50.954;5.322;2023-12-04T09:33:11;4.50;1.00
21216;DHT22;10765;50.954;5.322;2023-12-04T09:35:40;4.40;1.00
21216;DHT22;10765;50.954;5.322;2023-12-04T09:38:07;4.40;1.00
21216;DHT22;10765;50.954;5.322;2023-12-04T09:40:34;4.40;1.00
21216;DHT22;10765;50.954;5.322;2023-12-04T09:43:02;4.40;1.00
21216;DHT22;10765;50.954;5.322;2023-12-04T09:45:30;4.20;1.00
21216;DHT22;10765;50.954;5.322;2023-12-04T09:47:58;3.80;1.00
21216;DHT22;10765;50.954;5.322;2023-12-04T09:50:26;3.50;1.00
21216;DHT22;10765;50.954;5.322;2023-12-04T09:52:55;3.40;1.00
21216;DHT22;10765;50.954;5.322;2023-12-04T09:55:26;3.40;1.00
21216;DHT22;10765;50.954;5.322;2023-12-04T09:57:54;3.20;1.00
21216;DHT22;10765;50.954;5.322;2023-12-04T10:00:21;3.30;1.00
21216;DHT22;10765;50.954;5.322;2023-12-04T10:02:48;3.20;1.00
21216;DHT22;10765;50.954;5.322;2023-12-04T10:05:16;3.30;1.00
21216;DHT22;10765;50.954;5.322;2023-12-04T10:07:43;3.10;22.10
21216;DHT22;10765;50.954;5.322;2023-12-04T10:10:11;3.10;57.80
21216;DHT22;10765;50.954;5.322;2023-12-04T10:12:39;3.10;83.70
21216;DHT22;10765;50.954;5.322;2023-12-04T10:15:09;3.10;91.30
21216;DHT22;10765;50.954;5.322;2023-12-04T10:17:37;3.10;75.20
21216;DHT22;10765;50.954;5.322;2023-12-04T10:20:05;3.00;99.90
21216;DHT22;10765;50.954;5.322;2023-12-04T10:22:38;2.90;99.90
21216;DHT22;10765;50.954;5.322;2023-12-04T10:25:16;2.90;99.90
21216;DHT22;10765;50.954;5.322;2023-12-04T10:27:43;2.80;99.90
21216;DHT22;10765;50.954;5.322;2023-12-04T10:30:22;2.80;99.90
21216;DHT22;10765;50.954;5.322;2023-12-04T10:32:54;2.70;99.90
21216;DHT22;10765;50.954;5.322;2023-12-04T10:35:21;2.70;1.00
21216;DHT22;10765;50.954;5.322;2023-12-04T10:37:48;2.90;1.00
21216;DHT22;10765;50.954;5.322;2023-12-04T10:40:24;2.80;1.00
21216;DHT22;10765;50.954;5.322;2023-12-04T10:42:53;2.70;99.90
21216;DHT22;10765;50.954;5.322;2023-12-04T10:45:36;2.70;99.90
21216;DHT22;10765;50.954;5.322;2023-12-04T10:48:04;2.80;1.00
21216;DHT22;10765;50.954;5.322;2023-12-04T10:50:32;2.70;1.00
21216;DHT22;10765;50.954;5.322;2023-12-04T10:53:01;2.70;99.90
21216;DHT22;10765;50.954;5.322;2023-12-04T10:55:29;2.70;1.00
21216;DHT22;10765;50.954;5.322;2023-12-04T10:57:56;2.70;1.00
21216;DHT22;10765;50.954;5.322;2023-12-04T11:00:24;2.70;99.90
21216;DHT22;10765;50.954;5.322;2023-12-04T11:02:53;2.70;99.90
21216;DHT22;10765;50.954;5.322;2023-12-04T11:05:23;2.60;99.90
21216;DHT22;10765;50.954;5.322;2023-12-04T11:07:52;2.60;99.90
21216;DHT22;10765;50.954;5.322;2023-12-04T11:10:22;2.60;99.90
21216;DHT22;10765;50.954;5.322;2023-12-04T11:12:54;2.80;1.00
21216;DHT22;10765;50.954;5.322;2023-12-04T11:15:23;2.90;1.00
21216;DHT22;10765;50.954;5.322;2023-12-04T11:17:55;3.00;1.00
21216;DHT22;10765;50.954;5.322;2023-12-04T11:20:27;3.10;1.00
21216;DHT22;10765;50.954;5.322;2023-12-04T11:22:56;3.30;1.00
21216;DHT22;10765;50.954;5.322;2023-12-04T11:25:25;3.40;1.00
21216;DHT22;10765;50.954;5.322;2023-12-04T11:27:54;3.60;1.00
21216;DHT22;10765;50.954;5.322;2023-12-04T11:30:22;3.60;99.90
21216;DHT22;10765;50.954;5.322;2023-12-04T11:32:49;3.50;99.90
21216;DHT22;10765;50.954;5.322;2023-12-04T11:35:18;3.60;1.00
21216;DHT22;10765;50.954;5.322;2023-12-04T11:37:46;3.70;1.00
21216;DHT22;10765;50.954;5.322;2023-12-04T11:40:15;3.60;99.90
21216;DHT22;10765;50.954;5.322;2023-12-04T11:42:42;3.70;99.90
21216;DHT22;10765;50.954;5.322;2023-12-04T11:45:18;3.80;99.90
21216;DHT22;10765;50.954;5.322;2023-12-04T11:47:50;3.90;99.90
21216;DHT22;10765;50.954;5.322;2023-12-04T11:50:18;3.70;99.90
21216;DHT22;10765;50.954;5.322;2023-12-04T11:52:46;3.60;99.90
21216;DHT22;10765;50.954;5.322;2023-12-04T11:55:16;3.50;99.90
21216;DHT22;10765;50.954;5.322;2023-12-04T11:57:43;3.50;99.90
21216;DHT22;10765;50.954;5.322;2023-12-04T12:00:20;3.50;98.40
21216;DHT22;10765;50.954;5.322;2023-12-04T12:03:00;3.60;31.30
21216;DHT22;10765;50.954;5.322;2023-12-04T12:05:28;3.80;5.10
21216;DHT22;10765;50.954;5.322;2023-12-04T12:07:55;4.00;1.00
21216;DHT22;10765;50.954;5.322;2023-12-04T12:10:22;4.00;1.00
21216;DHT22;10765;50.954;5.322;2023-12-04T12:12:49;4.20;1.00
21216;DHT22;10765;50.954;5.322;2023-12-04T12:15:18;4.30;99.90
21216;DHT22;10765;50.954;5.322;2023-12-04T12:17:45;4.30;99.90
21216;DHT22;10765;50.954;5.322;2023-12-04T12:20:13;4.20;99.90
21216;DHT22;10765;50.954;5.322;2023-12-04T12:22:40;4.00;1.00
21216;DHT22;10765;50.954;5.322;2023-12-04T12:25:10;3.90;1.00
21216;DHT22;10765;50.954;5.322;2023-12-04T12:27:38;3.90;1.00
21216;DHT22;10765;50.954;5.322;2023-12-04T12:30:06;3.90;1.00
21216;DHT22;10765;50.954;5.322;2023-12-04T12:32:35;4.00;1.00
21216;DHT22;10765;50.954;5.322;2023-12-04T12:35:01;4.00;1.00
21216;DHT22;10765;50.954;5.322;2023-12-04T12:37:29;3.90;1.00
21216;DHT22;10765;50.954;5.322;2023-12-04T12:39:57;4.10;1.00
21216;DHT22;10765;50.954;5.322;2023-12-04T12:42:24;4.10;1.00
21216;DHT22;10765;50.954;5.322;2023-12-04T12:44:52;4.10;1.00
21216;DHT22;10765;50.954;5.322;2023-12-04T12:47:19;4.20;99.90
21216;DHT22;10765;50.954;5.322;2023-12-04T12:49:48;4.20;99.90
21216;DHT22;10765;50.954;5.322;2023-12-04T12:52:15;4.20;1.00
21216;DHT22;10765;50.954;5.322;2023-12-04T12:54:42;4.30;99.90
21216;DHT22;10765;50.954;5.322;2023-12-04T12:57:10;4.30;99.90
21216;DHT22;10765;50.954;5.322;2023-12-04T12:59:38;4.30;99.90
21216;DHT22;10765;50.954;5.322;2023-12-04T13:02:05;4.40;99.90
21216;DHT22;10765;50.954;5.322;2023-12-04T13:04:36;4.40;99.90
21216;DHT22;10765;50.954;5.322;2023-12-04T13:07:04;4.40;99.90
21216;DHT22;10765;50.954;5.322;2023-12-04T13:09:32;4.20;1.00
21216;DHT22;10765;50.954;5.322;2023-12-04T13:12:01;4.10;1.00
21216;DHT22;10765;50.954;5.322;2023-12-04T13:14:28;4.00;1.00
21216;DHT22;10765;50.954;5.322;2023-12-04T13:16:55;3.90;99.90
21216;DHT22;10765;50.954;5.322;2023-12-04T13:19:22;3.80;1.00
21216;DHT22;10765;50.954;5.322;2023-12-04T13:21:49;3.70;99.90
21216;DHT22;10765;50.954;5.322;2023-12-04T13:24:18;3.70;99.90
21216;DHT22;10765;50.954;5.322;2023-12-04T13:26:45;3.70;1.00
21216;DHT22;10765;50.954;5.322;2023-12-04T13:29:12;3.80;1.00
21216;DHT22;10765;50.954;5.322;2023-12-04T13:31:40;3.80;99.90
21216;DHT22;10765;50.954;5.322;2023-12-04T13:34:07;3.80;99.90
21216;DHT22;10765;50.954;5.322;2023-12-04T13:36:34;3.80;1.00
21216;DHT22;10765;50.954;5.322;2023-12-04T13:39:02;3.80;99.90
21216;DHT22;10765;50.954;5.322;2023-12-04T13:41:31;3.80;1.00
21216;DHT22;10765;50.954;5.322;2023-12-04T13:44:15;3.80;99.90
21216;DHT22;10765;50.954;5.322;2023-12-04T13:46:42;3.80;99.90
21216;DHT22;10765;50.954;5.322;2023-12-04T13:49:09;3.70;99.90
21216;DHT22;10765;50.954;5.322;2023-12-04T13:51:36;3.70;1.00
21216;DHT22;10765;50.954;5.322;2023-12-04T13:54:05;3.80;32.80
21216;DHT22;10765;50.954;5.322;2023-12-04T13:56:47;3.80;1.00
21216;DHT22;10765;50.954;5.322;2023-12-04T13:59:22;3.80;31.70
21216;DHT22;10765;50.954;5.322;2023-12-04T14:01:50;3.80;1.00
21216;DHT22;10765;50.954;5.322;2023-12-04T14:04:18;3.80;1.00
21216;DHT22;10765;50.954;5.322;2023-12-04T14:06:45;3.90;1.00
21216;DHT22;10765;50.954;5.322;2023-12-04T14:09:12;3.80;99.90
21216;DHT22;10765;50.954;5.322;2023-12-04T14:11:42;3.70;99.90
21216;DHT22;10765;50.954;5.322;2023-12-04T14:14:12;3.80;1.00
21216;DHT22;10765;50.954;5.322;2023-12-04T14:16:39;3.90;44.50
21216;DHT22;10765;50.954;5.322;2023-12-04T14:19:07;3.80;1.00
21216;DHT22;10765;50.954;5.322;2023-12-04T14:21:34;3.80;99.90
21216;DHT22;10765;50.954;5.322;2023-12-04T14:24:03;3.80;99.90
21216;DHT22;10765;50.954;5.322;2023-12-04T14:26:30;3.80;99.90
21216;DHT22;10765;50.954;5.322;2023-12-04T14:28:57;3.70;1.00
21216;DHT22;10765;50.954;5.322;2023-12-04T14:31:28;3.70;1.00
21216;DHT22;10765;50.954;5.322;2023-12-04T14:33:55;3.70;1.00
21216;DHT22;10765;50.954;5.322;2023-12-04T14:36:22;3.70;1.00
21216;DHT22;10765;50.954;5.322;2023-12-04T14:38:49;3.80;95.30
21216;DHT22;10765;50.954;5.322;2023-12-04T14:41:16;3.80;57.30
21216;DHT22;10765;50.954;5.322;2023-12-04T14:43:43;3.80;99.90
21216;DHT22;10765;50.954;5.322;2023-12-04T14:46:10;3.80;99.90
21216;DHT22;10765;50.954;5.322;2023-12-04T14:48:38;3.80;99.90
21216;DHT22;10765;50.954;5.322;2023-12-04T14:51:07;3.80;99.90
21216;DHT22;10765;50.954;5.322;2023-12-04T14:53:35;3.80;99.90
21216;DHT22;10765;50.954;5.322;2023-12-04T14:56:11;3.80;99.90
21216;DHT22;10765;50.954;5.322;2023-12-04T14:58:52;3.80;99.90
21216;DHT22;10765;50.954;5.322;2023-12-04T15:01:45;3.80;99.90
21216;DHT22;10765;50.954;5.322;2023-12-04T15:04:27;3.90;99.90
21216;DHT22;10765;50.954;5.322;2023-12-04T15:07:11;3.80;99.90
21216;DHT22;10765;50.954;5.322;2023-12-04T15:10:12;3.80;99.90
21216;DHT22;10765;50.954;5.322;2023-12-04T15:13:25;3.80;99.90
21216;DHT22;10765;50.954;5.322;2023-12-04T15:16:06;3.80;99.90
21216;DHT22;10765;50.954;5.322;2023-12-04T15:18:53;3.80;99.90
21216;DHT22;10765;50.954;5.322;2023-12-04T15:21:48;3.80;99.90
21216;DHT22;10765;50.954;5.322;2023-12-04T15:24:14;3.70;99.90
21216;DHT22;10765;50.954;5.322;2023-12-04T15:26:41;3.80;99.90
21216;DHT22;10765;50.954;5.322;2023-12-04T15:29:07;3.80;99.90
21216;DHT22;10765;50.954;5.322;2023-12-04T15:31:34;3.80;99.90
21216;DHT22;10765;50.954;5.322;2023-12-04T15:34:01;3.80;99.90
21216;DHT22;10765;50.954;5.322;2023-12-04T15:36:29;3.70;99.90
21216;DHT22;10765;50.954;5.322;2023-12-04T15:38:57;3.80;99.90
21216;DHT22;10765;50.954;5.322;2023-12-04T15:41:23;3.80;99.90
21216;DHT22;10765;50.954;5.322;2023-12-04T15:43:50;3.70;99.90
21216;DHT22;10765;50.954;5.322;2023-12-04T15:46:16;3.80;99.90
21216;DHT22;10765;50.954;5.322;2023-12-04T15:48:44;3.80;99.90
21216;DHT22;10765;50.954;5.322;2023-12-04T15:51:10;3.80;99.90
21216;DHT22;10765;50.954;5.322;2023-12-04T15:53:38;3.80;99.90
21216;DHT22;10765;50.954;5.322;2023-12-04T15:56:06;3.80;99.90
21216;DHT22;10765;50.954;5.322;2023-12-04T15:58:34;3.80;99.90
21216;DHT22;10765;50.954;5.322;2023-12-04T16:01:00;3.80;99.90